Time;durP1;ratioP1;P1;durP2;ratioP2;P2;SDS_P1;SDS_P2;PMS_P1;PMS_P2;Temp;Humidity;BMP_temperature;BMP_pressure;BME280_temperature;BME280_humidity;BME280_pressure;Samples;Min_cycle;Max_cycle;Signal;HPM_P1;HPM_P2
2024/01/21 00:04:03;;;;;;;18.40;8.90;;;;;;;1.95;58.11;100335.70;231890;205;153152;-53
2024/01/21 00:09:06;;;;;;;16.80;8.60;;;;;;;1.98;58.50;100342.00;231530;198;142041;-57
2024/01/21 00:14:10;;;;;;;17.70;8.30;;;;;;;1.99;58.69;100350.91;231614;198;138709;-55
2024/01/21 00:19:13;;;;;;;15.90;8.50;;;;;;;2.03;58.99;100357.52;230942;198;153693;-54
2024/01/21 00:24:16;;;;;;;15.30;8.70;;;;;;;2.05;59.29;100355.60;230074;202;138743;-56
2024/01/21 00:29:20;;;;;;;15.80;7.50;;;;;;;2.10;59.52;100361.52;230309;201;138751;-54
2024/01/21 00:34:23;;;;;;;16.20;7.60;;;;;;;2.06;60.02;100377.82;230170;203;153880;-54
2024/01/21 00:39:28;;;;;;;14.10;8.60;;;;;;;1.99;60.43;100381.36;231556;198;141096;-57
2024/01/21 00:44:31;;;;;;;19.00;8.70;;;;;;;1.94;60.86;100381.92;231910;198;139570;-56
2024/01/21 00:49:34;;;;;;;17.80;8.80;;;;;;;1.96;61.14;100388.56;231918;198;153258;-54
2024/01/21 00:54:38;;;;;;;14.60;7.60;;;;;;;1.87;61.57;100400.32;230061;202;139990;-53
2024/01/21 00:59:42;;;;;;;17.60;7.90;;;;;;;1.82;61.70;100408.39;230321;203;138768;-49
2024/01/21 01:04:46;;;;;;;14.10;8.00;;;;;;;1.76;62.23;100412.97;230076;202;154395;-54
2024/01/21 01:09:49;;;;;;;17.30;9.00;;;;;;;1.76;62.65;100419.10;230073;202;139248;-54
2024/01/21 01:14:53;;;;;;;16.00;9.00;;;;;;;1.78;62.73;100418.39;230300;202;139944;-52
2024/01/21 01:19:56;;;;;;;18.50;8.60;;;;;;;1.72;63.24;100423.83;230057;206;153784;-53
2024/01/21 01:25:00;;;;;;;17.20;9.00;;;;;;;1.67;63.70;100426.30;230293;198;138697;-53
2024/01/21 01:30:04;;;;;;;15.00;8.40;;;;;;;1.64;63.98;100426.83;231895;199;142163;-55
2024/01/21 01:35:08;;;;;;;17.60;8.90;;;;;;;1.66;64.29;100423.33;231924;198;153041;-55
2024/01/21 01:40:13;;;;;;;16.50;8.70;;;;;;;1.67;64.72;100424.73;231886;202;137196;-56
2024/01/21 01:45:16;;;;;;;18.70;9.40;;;;;;;1.69;64.90;100424.02;231914;199;138803;-56
2024/01/21 01:50:20;;;;;;;17.90;8.80;;;;;;;1.71;65.03;100428.38;231920;199;154456;-56
2024/01/21 01:55:23;;;;;;;18.90;9.60;;;;;;;1.66;65.14;100430.50;231096;198;138134;-55
2024/01/21 02:00:26;;;;;;;17.00;9.20;;;;;;;1.64;65.41;100445.91;230234;202;139205;-53
2024/01/21 02:05:30;;;;;;;17.90;8.70;;;;;;;1.62;65.53;100451.84;230326;206;153748;-52
2024/01/21 02:10:33;;;;;;;19.20;9.30;;;;;;;1.62;65.60;100460.24;230207;205;138482;-53
2024/01/21 02:15:36;;;;;;;15.90;9.30;;;;;;;1.65;65.52;100465.31;231468;198;138110;-50
2024/01/21 02:20:40;;;;;;;18.80;9.60;;;;;;;1.64;65.69;100469.17;230210;203;153436;-56
2024/01/21 02:25:43;;;;;;;18.20;9.20;;;;;;;1.68;65.66;100469.16;231881;202;139660;-56
2024/01/21 02:30:46;;;;;;;16.70;9.20;;;;;;;1.73;65.47;100467.22;231840;205;138314;-55
2024/01/21 02:35:50;;;;;;;16.30;9.20;;;;;;;1.73;65.40;100464.23;230970;205;153526;-53
2024/01/21 02:40:53;;;;;;;17.30;9.50;;;;;;;1.73;65.20;100467.04;230269;201;138701;-52
2024/01/21 02:45:56;;;;;;;19.90;9.30;;;;;;;1.77;65.18;100472.63;230201;202;139175;-53
2024/01/21 02:50:59;;;;;;;17.30;9.60;;;;;;;1.85;64.80;100481.00;230204;206;153637;-54
2024/01/21 02:56:03;;;;;;;20.90;9.70;;;;;;;1.87;64.68;100488.35;230266;205;139413;-53
2024/01/21 03:01:06;;;;;;;18.30;9.90;;;;;;;1.88;64.49;100490.27;230516;205;139072;-56
2024/01/21 03:06:10;;;;;;;21.50;9.40;;;;;;;1.87;64.43;100490.45;231185;204;154486;-56
2024/01/21 03:11:13;;;;;;;19.40;10.10;;;;;;;1.89;64.25;100490.09;230548;201;139103;-53
2024/01/21 03:16:17;;;;;;;18.40;10.10;;;;;;;1.91;64.13;100495.67;232031;198;141697;-57
2024/01/21 03:21:20;;;;;;;15.90;9.10;;;;;;;1.94;63.98;100497.76;230595;197;153102;-57
2024/01/21 03:26:23;;;;;;;19.30;10.10;;;;;;;1.96;63.66;100502.65;232008;205;137834;-54
2024/01/21 03:31:28;;;;;;;19.80;9.50;;;;;;;1.98;63.67;100504.58;231874;201;138488;-57
2024/01/21 03:36:31;;;;;;;17.50;9.80;;;;;;;2.05;63.46;100506.11;230682;205;152923;-52
2024/01/21 03:41:34;;;;;;;17.80;10.00;;;;;;;2.07;63.32;100498.24;230316;205;139294;-51
2024/01/21 03:46:37;;;;;;;20.30;9.90;;;;;;;2.12;63.06;100493.85;231949;198;138263;-55
2024/01/21 03:51:40;;;;;;;20.30;9.90;;;;;;;2.12;62.96;100496.83;230851;198;273886;-55
2024/01/21 03:56:44;;;;;;;18.30;9.80;;;;;;;2.16;62.82;100499.79;230160;206;138734;-53
2024/01/21 04:01:47;;;;;;;17.00;9.40;;;;;;;2.22;62.47;100506.58;231917;201;138144;-55
2024/01/21 04:06:50;;;;;;;19.40;10.00;;;;;;;2.22;62.34;100513.23;230265;206;153667;-54
2024/01/21 04:11:54;;;;;;;18.90;9.50;;;;;;;2.26;62.22;100510.41;230251;201;138773;-54
2024/01/21 04:16:59;;;;;;;18.30;9.80;;;;;;;2.28;61.92;100510.06;231902;197;139136;-54
2024/01/21 04:22:03;;;;;;;19.20;10.20;;;;;;;2.27;61.82;100513.04;230232;201;153823;-54
2024/01/21 04:27:06;;;;;;;21.90;10.80;;;;;;;2.26;61.81;100520.40;231847;201;138341;-57
2024/01/21 04:32:09;;;;;;;19.40;10.30;;;;;;;2.35;61.59;100517.73;231889;197;137285;-57
2024/01/21 04:37:12;;;;;;;19.10;10.00;;;;;;;2.37;61.54;100522.63;232047;198;155752;-57
2024/01/21 04:42:16;;;;;;;19.20;10.20;;;;;;;2.39;61.44;100529.80;231923;198;138482;-57
2024/01/21 04:47:19;;;;;;;18.90;10.60;;;;;;;2.40;61.33;100529.80;232123;202;139015;-57
2024/01/21 04:52:22;;;;;;;20.10;11.40;;;;;;;2.45;61.42;100532.91;232002;205;153198;-57
2024/01/21 04:57:25;;;;;;;18.90;11.00;;;;;;;2.54;61.16;100536.73;231687;202;138475;-54
2024/01/21 05:02:28;;;;;;;25.00;11.60;;;;;;;2.57;61.07;100538.99;231669;198;139202;-57
2024/01/21 05:07:32;;;;;;;19.50;11.10;;;;;;;2.62;60.85;100540.20;230331;202;154130;-53
2024/01/21 05:12:36;;;;;;;17.70;10.70;;;;;;;2.66;60.83;100546.13;231989;198;138934;-56
2024/01/21 05:17:40;;;;;;;19.70;11.00;;;;;;;2.66;60.51;100547.35;232066;201;137482;-56
2024/01/21 05:22:43;;;;;;;20.00;11.30;;;;;;;2.65;60.48;100556.30;231936;201;152666;-55
2024/01/21 05:27:46;;;;;;;22.20;11.70;;;;;;;2.68;60.60;100562.40;231863;197;138759;-56
2024/01/21 05:32:51;;;;;;;22.00;12.30;;;;;;;2.70;60.55;100565.21;230415;202;141776;-56
2024/01/21 05:37:54;;;;;;;23.70;11.60;;;;;;;2.70;60.51;100565.21;231960;197;154426;-57
2024/01/21 05:42:57;;;;;;;19.80;11.50;;;;;;;2.71;60.47;100562.74;232016;205;138326;-56
2024/01/21 05:48:01;;;;;;;24.80;12.30;;;;;;;2.75;60.27;100564.47;232188;206;137496;-56
2024/01/21 05:53:05;;;;;;;20.90;11.60;;;;;;;2.75;60.24;100565.17;232043;201;155562;-55
2024/01/21 05:58:09;;;;;;;21.50;11.70;;;;;;;2.74;60.12;100566.41;230795;198;138836;-53
2024/01/21 06:03:12;;;;;;;20.50;11.50;;;;;;;2.72;59.93;100574.14;230791;197;138778;-55
2024/01/21 06:08:16;;;;;;;17.50;10.30;;;;;;;2.74;60.02;100574.46;230100;205;155436;-55
2024/01/21 06:13:19;;;;;;;22.10;11.80;;;;;;;2.74;59.83;100573.59;230117;205;139069;-51
2024/01/21 06:18:22;;;;;;;22.20;11.70;;;;;;;2.74;59.76;100572.55;230808;201;138614;-56
2024/01/21 06:23:25;;;;;;;18.20;10.70;;;;;;;2.75;59.71;100571.14;232149;198;154466;-55
2024/01/21 06:28:28;;;;;;;19.60;11.30;;;;;;;2.73;59.68;100569.57;231460;206;138121;-55
2024/01/21 06:33:32;;;;;;;21.20;10.70;;;;;;;2.75;59.73;100562.90;231931;205;138306;-56
2024/01/21 06:38:35;;;;;;;20.60;10.50;;;;;;;2.75;59.64;100563.42;231905;202;153388;-57
2024/01/21 06:43:38;;;;;;;18.60;10.10;;;;;;;2.79;59.49;100566.02;231919;198;141109;-57
2024/01/21 06:48:41;;;;;;;19.20;11.10;;;;;;;2.83;59.61;100560.58;231971;198;138106;-55
2024/01/21 06:53:45;;;;;;;21.30;11.50;;;;;;;2.87;59.30;100557.04;232184;198;153449;-57
2024/01/21 06:58:48;;;;;;;260.10;146.20;;;;;;;3.03;60.49;100559.38;231385;202;139362;-56
2024/01/21 07:03:52;;;;;;;33.30;18.00;;;;;;;3.26;59.87;100554.32;230219;202;139017;-57
2024/01/21 07:08:56;;;;;;;218.20;134.80;;;;;;;3.26;59.36;100558.70;230376;202;154349;-54
2024/01/21 07:13:59;;;;;;;66.70;36.80;;;;;;;3.37;59.44;100563.52;231429;202;138669;-57
2024/01/21 07:19:03;;;;;;;26.90;13.30;;;;;;;3.37;58.62;100569.66;230646;206;138701;-59
2024/01/21 07:24:06;;;;;;;21.90;12.10;;;;;;;3.30;58.48;100577.26;231886;198;153977;-55
2024/01/21 07:29:09;;;;;;;23.30;11.80;;;;;;;3.27;58.55;100580.61;231774;198;142095;-56
2024/01/21 07:34:13;;;;;;;366.90;241.30;;;;;;;3.28;58.79;100576.58;231933;198;138186;-58
2024/01/21 07:39:16;;;;;;;42.20;22.60;;;;;;;3.43;59.05;100572.95;230894;198;153436;-55
2024/01/21 07:44:20;;;;;;;27.50;13.90;;;;;;;3.46;58.01;100570.64;231107;205;138682;-55
2024/01/21 07:49:23;;;;;;;24.40;12.10;;;;;;;3.41;57.77;100580.33;230169;205;139085;-57
2024/01/21 07:54:26;;;;;;;25.70;12.60;;;;;;;3.38;57.75;100580.17;231866;198;153248;-58
2024/01/21 07:59:29;;;;;;;25.00;12.10;;;;;;;3.38;57.75;100580.00;232002;198;139411;-59
2024/01/21 08:04:32;;;;;;;29.80;13.50;;;;;;;3.40;57.63;100573.48;230512;205;138728;-56
2024/01/21 08:09:36;;;;;;;22.80;11.80;;;;;;;3.45;58.05;100573.81;230315;202;154702;-55
2024/01/21 08:14:39;;;;;;;21.90;12.50;;;;;;;3.51;57.96;100578.67;231852;198;138465;-57
2024/01/21 08:19:42;;;;;;;22.30;12.30;;;;;;;3.56;57.80;100581.61;231793;205;137307;-57
2024/01/21 08:24:49;;;;;;;21.60;12.30;;;;;;;3.65;57.96;100583.64;231916;198;153449;-56
2024/01/21 08:29:52;;;;;;;23.70;13.10;;;;;;;3.73;57.61;100587.61;231783;198;139225;-56
2024/01/21 08:34:55;;;;;;;23.60;12.00;;;;;;;3.81;57.64;100586.83;231253;198;138755;-55
2024/01/21 08:39:58;;;;;;;24.00;11.80;;;;;;;3.85;57.38;100591.86;230172;202;153731;-55
2024/01/21 08:45:04;;;;;;;644.70;428.80;;;;;;;3.87;57.48;100591.16;230212;201;139249;-57
2024/01/21 08:50:08;;;;;;;44.20;23.10;;;;;;;4.02;57.93;100594.35;231562;206;140398;-55
2024/01/21 08:55:11;;;;;;;31.00;13.00;;;;;;;4.12;57.26;100595.65;230193;202;153297;-57
2024/01/21 09:00:15;;;;;;;26.10;12.40;;;;;;;4.19;56.91;100602.23;231872;198;138265;-57
2024/01/21 09:05:18;;;;;;;27.20;14.20;;;;;;;4.23;57.20;100608.52;231715;197;139261;-55
2024/01/21 09:10:22;;;;;;;30.70;13.00;;;;;;;4.33;58.06;100612.27;231859;197;153353;-54
2024/01/21 09:15:25;;;;;;;24.80;11.70;;;;;;;4.38;56.74;100616.98;231766;198;138718;-55
2024/01/21 09:20:29;;;;;;;21.10;11.10;;;;;;;4.41;56.54;100616.40;231530;205;139089;-56
2024/01/21 09:25:32;;;;;;;27.40;11.40;;;;;;;4.45;56.58;100619.34;231888;198;153107;-57
2024/01/21 09:30:35;;;;;;;24.20;11.40;;;;;;;4.54;56.41;100618.72;230331;205;140473;-54
2024/01/21 09:35:39;;;;;;;22.30;11.20;;;;;;;4.58;55.82;100614.80;230225;205;138715;-54
2024/01/21 09:40:42;;;;;;;23.10;11.80;;;;;;;4.66;56.03;100611.88;231540;198;154379;-55
2024/01/21 09:45:45;;;;;;;23.80;10.90;;;;;;;4.74;55.90;100611.79;231819;203;138240;-57
2024/01/21 09:50:51;;;;;;;22.70;11.20;;;;;;;4.74;55.42;100604.93;231749;198;138624;-56
2024/01/21 09:55:58;;;;;;;21.40;10.90;;;;;;;4.73;55.74;100601.25;231692;202;155473;-57
2024/01/21 10:01:02;;;;;;;23.10;11.30;;;;;;;4.85;55.60;100596.52;231604;197;139942;-57
2024/01/21 10:06:05;;;;;;;26.90;12.30;;;;;;;4.97;55.21;100593.36;230551;198;138685;-55
2024/01/21 10:11:09;;;;;;;21.70;10.60;;;;;;;5.06;55.18;100591.13;231179;205;154504;-56
2024/01/21 10:16:12;;;;;;;22.00;10.80;;;;;;;5.11;54.82;100594.56;231712;199;138213;-58
2024/01/21 10:21:18;;;;;;;21.30;11.70;;;;;;;5.18;54.96;100589.89;231731;201;138116;-57
2024/01/21 10:26:21;;;;;;;22.20;10.40;;;;;;;5.29;54.56;100589.54;231707;201;154105;-58
2024/01/21 10:31:24;;;;;;;19.30;10.50;;;;;;;5.32;54.62;100584.76;231524;205;138279;-56
2024/01/21 10:36:32;;;;;;;19.20;10.10;;;;;;;5.39;54.07;100588.87;231764;198;138317;-57
2024/01/21 10:41:36;;;;;;;20.00;9.20;;;;;;;5.45;54.03;100583.48;231911;198;154877;-58
2024/01/21 10:46:42;;;;;;;21.50;9.60;;;;;;;5.55;53.79;100581.73;231746;204;141413;-58
2024/01/21 10:51:46;;;;;;;21.00;9.20;;;;;;;5.64;53.76;100584.41;231805;198;139525;-55
2024/01/21 10:56:50;;;;;;;23.10;9.40;;;;;;;5.68;53.65;100578.89;231543;198;153401;-56
2024/01/21 11:01:54;;;;;;;23.70;10.60;;;;;;;5.75;53.77;100574.02;231494;198;138289;-58
2024/01/21 11:07:01;;;;;;;23.30;9.80;;;;;;;5.82;53.58;100570.71;231611;201;138185;-58
2024/01/21 11:12:04;;;;;;;19.80;9.90;;;;;;;5.85;53.29;100559.91;231651;202;153256;-57
2024/01/21 11:17:10;;;;;;;20.60;9.70;;;;;;;5.91;53.41;100556.11;231682;205;141660;-57
2024/01/21 11:22:14;;;;;;;20.30;10.20;;;;;;;5.98;53.02;100554.42;231582;198;138066;-58
2024/01/21 11:27:26;;;;;;;20.90;10.10;;;;;;;6.10;53.35;100542.58;231551;203;153752;-57
2024/01/21 11:32:31;;;;;;;22.10;9.70;;;;;;;6.20;53.11;100532.32;231582;199;137884;-57
2024/01/21 11:37:35;;;;;;;26.40;11.80;;;;;;;6.28;52.64;100525.80;231563;205;138173;-58
2024/01/21 11:42:38;;;;;;;19.40;10.40;;;;;;;6.42;53.13;100518.82;231575;202;154494;-57
2024/01/21 11:47:41;;;;;;;16.70;9.10;;;;;;;6.52;52.56;100503.45;231795;198;138812;-58
2024/01/21 11:52:45;;;;;;;24.10;10.40;;;;;;;6.58;52.05;100501.55;231485;198;142052;-58
2024/01/21 11:57:48;;;;;;;26.10;12.00;;;;;;;6.61;52.02;100509.26;231558;198;153165;-55
2024/01/21 12:02:52;;;;;;;21.80;11.50;;;;;;;6.62;52.25;100509.22;231682;197;138220;-58
2024/01/21 12:07:55;;;;;;;17.10;10.10;;;;;;;6.66;52.34;100501.54;231626;201;138699;-56
2024/01/21 12:12:59;;;;;;;23.50;11.00;;;;;;;6.68;52.24;100499.20;231700;201;154755;-55
2024/01/21 12:18:03;;;;;;;27.70;14.90;;;;;;;6.69;52.37;100494.41;231616;197;138707;-55
2024/01/21 12:23:18;;;;;;;26.90;12.10;;;;;;;6.69;52.25;100482.63;231813;197;138716;-56
2024/01/21 12:28:23;;;;;;;25.50;13.10;;;;;;;6.68;52.38;100472.77;231702;205;153562;-58
2024/01/21 12:33:26;;;;;;;26.00;13.40;;;;;;;6.56;52.75;100467.75;231639;197;138789;-57
2024/01/21 12:38:30;;;;;;;27.90;13.40;;;;;;;6.48;53.08;100466.67;231685;204;138231;-56
2024/01/21 12:43:34;;;;;;;23.20;12.90;;;;;;;6.55;53.14;100467.42;231707;205;153105;-57
2024/01/21 12:48:38;;;;;;;25.30;14.30;;;;;;;6.69;53.46;100461.63;231745;197;138437;-56
2024/01/21 12:53:41;;;;;;;23.90;13.00;;;;;;;6.81;53.00;100450.93;231917;199;137927;-57
2024/01/21 12:58:45;;;;;;;28.90;13.10;;;;;;;6.84;52.72;100439.02;231529;204;153527;-57
2024/01/21 13:03:48;;;;;;;30.90;14.60;;;;;;;6.85;52.58;100440.08;231914;198;137520;-55
2024/01/21 13:08:51;;;;;;;28.20;14.20;;;;;;;6.77;52.61;100435.50;231692;201;138670;-55
2024/01/21 13:13:54;;;;;;;24.70;13.60;;;;;;;6.68;52.69;100431.16;231512;198;153221;-53
2024/01/21 13:18:58;;;;;;;25.80;13.40;;;;;;;6.60;52.95;100442.80;231167;197;139048;-55
2024/01/21 13:24:03;;;;;;;25.50;13.90;;;;;;;6.54;53.12;100457.55;231759;198;138573;-55
2024/01/21 13:34:10;;;;;;;609.60;438.80;;;;;;;6.53;53.64;100449.84;231586;199;138684;-56
2024/01/21 13:39:13;;;;;;;34.70;20.20;;;;;;;6.59;55.94;100451.10;231655;205;138722;-56
2024/01/21 13:44:17;;;;;;;24.60;13.70;;;;;;;6.92;54.18;100445.02;231480;198;153374;-55
2024/01/21 13:49:20;;;;;;;25.00;13.50;;;;;;;6.79;53.21;100441.64;231576;202;138766;-57
2024/01/21 13:54:23;;;;;;;23.90;13.60;;;;;;;6.69;53.13;100433.94;231679;205;138116;-56
2024/01/21 13:59:26;;;;;;;23.40;12.50;;;;;;;6.60;53.31;100433.08;231277;199;153912;-57
2024/01/21 14:04:31;;;;;;;27.30;13.70;;;;;;;6.52;53.18;100429.04;231658;205;137895;-57
2024/01/21 14:09:35;;;;;;;82.10;50.10;;;;;;;6.40;54.40;100432.32;231731;202;138581;-61
2024/01/21 14:14:39;;;;;;;32.00;17.60;;;;;;;6.33;53.99;100433.17;231683;205;153378;-61
2024/01/21 14:19:42;;;;;;;31.10;15.70;;;;;;;6.18;54.90;100434.02;231600;198;138712;-59
2024/01/21 14:24:46;;;;;;;29.40;15.20;;;;;;;6.06;54.64;100440.80;231672;198;138610;-60
2024/01/21 14:29:53;;;;;;;29.20;16.40;;;;;;;5.85;55.17;100444.91;231850;198;153133;-60
2024/01/21 14:35:00;;;;;;;30.60;16.30;;;;;;;5.70;55.49;100443.62;231807;205;139068;-59
2024/01/21 14:40:10;;;;;;;30.80;16.10;;;;;;;5.56;56.08;100434.38;231674;205;138122;-60
2024/01/21 14:45:13;;;;;;;29.30;16.60;;;;;;;5.41;56.53;100442.05;231724;198;153931;-61
2024/01/21 14:50:17;;;;;;;27.00;16.40;;;;;;;5.30;57.12;100443.65;231219;202;138439;-61
2024/01/21 14:55:20;;;;;;;28.70;16.00;;;;;;;5.16;57.48;100446.20;231577;205;138620;-58
2024/01/21 15:00:24;;;;;;;28.40;17.20;;;;;;;5.02;57.89;100443.45;231882;203;154851;-54
2024/01/21 15:05:27;;;;;;;33.00;16.00;;;;;;;4.90;58.29;100433.62;231865;205;138442;-57
2024/01/21 15:10:31;;;;;;;30.10;15.30;;;;;;;4.79;58.66;100434.67;231539;198;139011;-57
2024/01/21 15:15:35;;;;;;;30.80;15.70;;;;;;;4.70;58.89;100434.10;231663;199;154205;-57
2024/01/21 15:20:38;;;;;;;32.30;19.20;;;;;;;4.67;60.18;100443.11;231700;201;138720;-56
2024/01/21 15:25:41;;;;;;;35.00;17.10;;;;;;;4.59;59.63;100465.04;231772;205;139435;-57
2024/01/21 15:30:45;;;;;;;30.80;16.20;;;;;;;4.48;59.82;100482.23;231485;201;153237;-57
2024/01/21 15:35:48;;;;;;;32.40;16.70;;;;;;;4.41;60.14;100479.88;231689;198;138341;-55
2024/01/21 15:40:51;;;;;;;26.80;16.00;;;;;;;4.31;60.39;100475.27;231667;198;138448;-56
2024/01/21 15:45:55;;;;;;;29.20;16.40;;;;;;;4.22;60.81;100463.10;231670;205;155302;-57
2024/01/21 15:50:59;;;;;;;32.40;17.70;;;;;;;4.12;60.90;100452.34;231538;198;138927;-57
2024/01/21 15:56:03;;;;;;;37.40;19.70;;;;;;;4.07;61.14;100459.08;231670;198;139715;-57
2024/01/21 16:01:06;;;;;;;33.60;18.40;;;;;;;4.07;61.98;100457.14;231669;198;153369;-57
2024/01/21 16:06:09;;;;;;;69.60;43.20;;;;;;;4.06;62.25;100457.51;231548;197;138959;-55
2024/01/21 16:11:13;;;;;;;31.60;18.90;;;;;;;4.25;62.70;100454.27;231614;199;138276;-55
2024/01/21 16:16:16;;;;;;;33.80;17.30;;;;;;;4.10;61.93;100457.11;231543;198;154386;-55
2024/01/21 16:21:19;;;;;;;30.00;16.60;;;;;;;3.99;61.99;100447.22;231432;198;138286;-56
2024/01/21 16:26:23;;;;;;;33.90;18.40;;;;;;;3.90;62.23;100441.02;231498;203;138466;-55
2024/01/21 16:31:27;;;;;;;35.00;18.20;;;;;;;3.84;62.21;100443.20;231413;203;153258;-57
2024/01/21 16:36:30;;;;;;;34.70;18.60;;;;;;;3.75;62.20;100440.48;231460;199;141061;-56
2024/01/21 16:41:34;;;;;;;33.90;19.20;;;;;;;3.65;62.38;100432.54;231678;198;138356;-56
2024/01/21 16:46:37;;;;;;;31.40;19.10;;;;;;;3.61;63.73;100426.63;231502;203;153367;-57
2024/01/21 16:51:47;;;;;;;179.00;88.30;;;;;;;3.63;64.59;100418.17;231490;198;138767;-57
2024/01/21 16:56:50;;;;;;;39.50;21.90;;;;;;;3.72;63.27;100409.80;231470;205;138851;-54
2024/01/21 17:02:00;;;;;;;36.70;20.20;;;;;;;3.59;62.90;100399.97;231448;199;155250;-57
2024/01/21 17:07:03;;;;;;;34.40;18.90;;;;;;;3.48;62.95;100398.69;231395;198;137634;-58
2024/01/21 17:12:18;;;;;;;37.30;20.90;;;;;;;3.42;64.67;100395.77;231454;198;138539;-55
2024/01/21 17:17:22;;;;;;;35.00;21.10;;;;;;;3.39;63.32;100390.38;231556;198;153533;-54
2024/01/21 17:22:26;;;;;;;38.20;21.10;;;;;;;3.31;63.46;100394.66;231510;198;139278;-55
2024/01/21 17:27:29;;;;;;;36.90;21.00;;;;;;;3.27;63.37;100391.38;231430;198;138656;-57
2024/01/21 17:32:32;;;;;;;37.40;22.30;;;;;;;3.17;63.54;100372.55;231458;198;154534;-55
2024/01/21 17:37:36;;;;;;;40.90;22.90;;;;;;;3.13;63.86;100376.98;231488;198;138362;-57
2024/01/21 17:42:39;;;;;;;42.40;23.30;;;;;;;3.03;63.81;100379.68;231477;198;139266;-56
2024/01/21 17:47:44;;;;;;;43.70;23.50;;;;;;;2.93;64.32;100390.84;231536;199;155210;-57
2024/01/21 17:52:48;;;;;;;40.50;22.60;;;;;;;2.93;64.79;100394.16;231413;202;138370;-57
2024/01/21 17:57:53;;;;;;;298.00;169.40;;;;;;;3.07;65.67;100396.30;231439;206;139468;-57
2024/01/21 18:02:56;;;;;;;42.10;24.00;;;;;;;3.37;65.94;100396.71;231476;198;153585;-53
2024/01/21 18:07:59;;;;;;;42.20;23.70;;;;;;;3.41;64.71;100401.40;231396;199;137685;-57
2024/01/21 18:13:03;;;;;;;42.20;23.60;;;;;;;3.39;64.61;100398.80;231472;198;139196;-57
2024/01/21 18:18:06;;;;;;;38.50;23.30;;;;;;;3.40;64.59;100399.14;231509;199;154479;-57
2024/01/21 18:23:10;;;;;;;42.00;23.70;;;;;;;3.36;64.73;100387.77;231595;205;138333;-56
2024/01/21 18:28:13;;;;;;;44.10;25.60;;;;;;;3.28;64.83;100372.41;231349;198;138660;-58
2024/01/21 18:33:16;;;;;;;43.20;24.80;;;;;;;3.29;64.95;100362.77;231454;198;152990;-55
2024/01/21 18:38:21;;;;;;;47.80;25.50;;;;;;;3.25;64.96;100366.13;231495;205;142671;-57
2024/01/21 18:43:24;;;;;;;48.60;28.10;;;;;;;3.22;64.89;100362.66;231506;199;137678;-57
2024/01/21 18:48:27;;;;;;;49.30;27.30;;;;;;;3.18;64.51;100362.18;230878;202;154166;-57
2024/01/21 18:53:30;;;;;;;46.40;26.60;;;;;;;3.13;64.61;100335.58;231570;205;139142;-57
2024/01/21 18:58:34;;;;;;;53.00;28.20;;;;;;;3.11;64.91;100339.98;231471;203;138448;-57
2024/01/21 19:03:39;;;;;;;52.70;27.90;;;;;;;3.11;65.17;100358.05;231442;198;153014;-59
2024/01/21 19:08:43;;;;;;;151.40;88.40;;;;;;;3.19;66.42;100346.22;231489;205;138177;-56
2024/01/21 19:13:47;;;;;;;51.90;27.40;;;;;;;3.44;66.80;100331.73;231515;199;138508;-55
2024/01/21 19:18:50;;;;;;;47.60;26.50;;;;;;;3.42;65.12;100319.11;231531;199;153290;-57
2024/01/21 19:23:59;;;;;;;50.70;28.60;;;;;;;3.39;65.17;100316.16;231495;202;139433;-58
2024/01/21 19:29:03;;;;;;;51.10;28.90;;;;;;;3.38;64.75;100305.14;231588;203;138107;-58
2024/01/21 19:34:07;;;;;;;48.60;28.60;;;;;;;3.31;64.79;100288.21;231482;198;153399;-58
2024/01/21 19:39:11;;;;;;;52.60;30.70;;;;;;;3.22;64.80;100287.08;231496;206;138366;-57
2024/01/21 19:44:14;;;;;;;53.60;30.00;;;;;;;3.18;65.05;100285.21;231433;206;139024;-57
2024/01/21 19:49:17;;;;;;;51.50;29.50;;;;;;;3.21;65.30;100303.94;231497;199;153424;-58
2024/01/21 19:54:20;;;;;;;108.60;61.20;;;;;;;3.22;66.01;100306.20;231496;203;138733;-58
2024/01/21 19:59:24;;;;;;;51.10;31.10;;;;;;;3.36;66.78;100270.07;231529;199;138521;-57
2024/01/21 20:04:27;;;;;;;57.20;31.00;;;;;;;3.38;65.76;100262.86;231444;198;153958;-57
2024/01/21 20:09:30;;;;;;;54.80;30.60;;;;;;;3.33;65.44;100273.97;231385;198;141072;-58
2024/01/21 20:14:33;;;;;;;82.50;50.90;;;;;;;3.38;66.34;100264.08;230877;199;138676;-59
2024/01/21 20:19:37;;;;;;;60.20;31.70;;;;;;;3.52;65.98;100236.36;231389;203;153715;-58
2024/01/21 20:24:40;;;;;;;57.50;31.70;;;;;;;3.46;65.44;100245.02;231432;198;138885;-56
2024/01/21 20:29:44;;;;;;;55.00;33.00;;;;;;;3.40;65.47;100261.27;231505;199;138391;-56
2024/01/21 20:34:48;;;;;;;59.10;32.50;;;;;;;3.27;65.44;100266.50;231440;203;153869;-58
2024/01/21 20:39:51;;;;;;;56.20;32.20;;;;;;;3.21;65.62;100258.69;231380;198;137678;-54
2024/01/21 20:44:57;;;;;;;65.40;33.60;;;;;;;3.16;65.58;100267.34;231524;198;137453;-57
2024/01/21 20:50:01;;;;;;;68.80;36.90;;;;;;;3.04;65.71;100252.22;231480;205;154776;-57
2024/01/21 20:55:04;;;;;;;61.30;36.00;;;;;;;2.94;65.80;100235.69;231476;199;139382;-58
2024/01/21 21:00:09;;;;;;;62.70;35.50;;;;;;;2.85;65.66;100249.11;231628;205;140721;-54
2024/01/21 21:05:12;;;;;;;65.80;35.90;;;;;;;2.78;65.67;100252.17;231678;199;153264;-58
2024/01/21 21:10:16;;;;;;;68.20;35.80;;;;;;;2.70;65.76;100255.41;231580;199;138750;-58
2024/01/21 21:15:20;;;;;;;68.30;35.40;;;;;;;2.60;65.76;100244.14;231712;198;139447;-57
2024/01/21 21:20:24;;;;;;;66.80;36.80;;;;;;;2.53;65.67;100246.98;231537;199;154144;-60
2024/01/21 21:25:28;;;;;;;67.50;35.30;;;;;;;2.46;65.89;100245.66;231545;198;138793;-58
2024/01/21 21:30:32;;;;;;;64.80;34.70;;;;;;;2.38;65.82;100244.86;231536;197;138673;-57
2024/01/21 21:35:38;;;;;;;70.70;37.80;;;;;;;2.29;65.93;100247.58;231693;199;155158;-58
2024/01/21 21:40:41;;;;;;;61.70;35.50;;;;;;;2.21;65.96;100245.20;231513;199;137765;-57
2024/01/21 21:45:45;;;;;;;66.10;35.30;;;;;;;2.15;66.33;100243.34;231585;205;141373;-58
2024/01/21 21:50:50;;;;;;;66.90;36.60;;;;;;;2.11;66.17;100234.61;231507;198;154280;-57
2024/01/21 21:55:53;;;;;;;65.80;36.80;;;;;;;2.03;66.11;100238.34;231523;202;139975;-58
2024/01/21 22:00:59;;;;;;;60.40;33.50;;;;;;;1.97;65.92;100236.83;231634;198;137579;-56
2024/01/21 22:06:05;;;;;;;64.20;35.00;;;;;;;1.92;65.82;100242.11;231589;205;153337;-58
2024/01/21 22:11:08;;;;;;;69.20;36.00;;;;;;;1.82;66.09;100236.23;231597;199;139751;-57
2024/01/21 22:16:11;;;;;;;65.60;34.50;;;;;;;1.77;65.92;100233.48;231590;199;138182;-58
2024/01/21 22:21:17;;;;;;;68.00;35.90;;;;;;;1.68;65.68;100239.29;231542;199;153490;-58
2024/01/21 22:26:20;;;;;;;75.20;39.30;;;;;;;1.61;65.80;100235.33;231443;199;142012;-57
2024/01/21 22:31:24;;;;;;;70.80;38.70;;;;;;;1.52;65.67;100238.71;231498;198;138396;-55
2024/01/21 22:36:27;;;;;;;77.60;40.80;;;;;;;1.43;65.80;100245.05;231545;198;153247;-57
2024/01/21 22:41:30;;;;;;;72.30;39.20;;;;;;;1.37;65.93;100229.52;231628;198;138385;-56
2024/01/21 22:46:34;;;;;;;71.70;37.60;;;;;;;1.33;66.17;100225.02;231515;203;139093;-57
2024/01/21 22:51:37;;;;;;;74.30;39.50;;;;;;;1.28;66.17;100227.83;231505;198;154482;-58
2024/01/21 22:56:40;;;;;;;69.40;37.50;;;;;;;1.25;66.24;100226.08;231545;205;138615;-57
2024/01/21 23:01:44;;;;;;;68.20;36.10;;;;;;;1.11;66.38;100214.79;231533;198;140706;-57
2024/01/21 23:06:47;;;;;;;64.90;35.10;;;;;;;1.13;66.55;100209.89;231537;199;154945;-57